createdAt,value
2018-10-17T00:03:23.706Z,18.8
2018-10-17T00:08:31.927Z,18.8
2018-10-17T00:18:48.273Z,18.7
2018-10-17T00:23:56.364Z,18.7
2018-10-17T00:29:04.646Z,18.5
2018-10-17T00:34:12.835Z,18.5
2018-10-17T00:39:21.032Z,18.3
2018-10-17T00:44:29.224Z,18.3
2018-10-17T00:49:37.453Z,18.3
2018-10-17T00:54:45.636Z,18.3
2018-10-17T01:05:02.019Z,18.1
2018-10-17T01:10:10.184Z,18.1
2018-10-17T01:15:18.295Z,18.1
2018-10-17T01:20:26.543Z,18
2018-10-17T01:25:34.872Z,18
2018-10-17T01:30:42.941Z,17.9
2018-10-17T01:35:51.247Z,17.9
2018-10-17T01:40:59.498Z,17.9
2018-10-17T01:46:07.716Z,17.8
2018-10-17T01:56:24.198Z,17.7
2018-10-17T02:01:32.384Z,17.8
2018-10-17T02:06:40.595Z,17.7
2018-10-17T02:11:48.839Z,17.7
2018-10-17T02:16:57.000Z,17.5
2018-10-17T02:22:05.307Z,17.5
2018-10-17T02:27:15.086Z,17.5
2018-10-17T02:32:21.810Z,17.5
2018-10-17T02:37:30.166Z,17.4
2018-10-17T02:47:46.603Z,17.3
2018-10-17T02:52:54.868Z,17.3
2018-10-17T02:58:03.151Z,17.2
2018-10-17T03:03:11.412Z,17.2
2018-10-17T03:08:19.678Z,17.3
2018-10-17T03:13:27.929Z,17.2
2018-10-17T03:18:36.174Z,17.2
2018-10-17T03:23:44.448Z,17.2
2018-10-17T03:34:00.926Z,17.1
2018-10-17T03:39:09.235Z,17.2
2018-10-17T03:44:17.461Z,17.1
2018-10-17T03:49:25.735Z,17.1
2018-10-17T03:59:42.260Z,17.2
2018-10-17T04:04:50.501Z,17.3
2018-10-17T04:15:06.963Z,17.5
2018-10-17T04:30:31.601Z,17.7
2018-10-17T04:35:39.807Z,17.8
2018-10-17T04:40:47.995Z,17.9
2018-10-17T04:45:56.249Z,17.8
2018-10-17T04:56:12.823Z,18
2018-10-17T05:01:20.869Z,18
2018-10-17T05:06:29.168Z,18
2018-10-17T05:11:37.400Z,18.1
2018-10-17T05:16:45.645Z,18.1
2018-10-17T05:21:53.859Z,18.1
2018-10-17T05:27:02.070Z,18.2
2018-10-17T05:32:10.343Z,18.1
2018-10-17T05:37:18.432Z,18.3
2018-10-17T05:42:26.635Z,18.2
2018-10-17T05:47:34.904Z,18.3
2018-10-17T05:52:43.085Z,18.3
2018-10-17T05:57:51.235Z,18.4
2018-10-17T06:02:59.384Z,18.4
2018-10-17T06:13:15.796Z,18.6
2018-10-17T06:18:23.888Z,18.7
2018-10-17T06:23:32.036Z,18.7
2018-10-17T06:28:40.119Z,18.8
2018-10-17T06:33:48.409Z,19
2018-10-17T06:38:56.536Z,19.1
2018-10-17T06:49:12.734Z,19.5
2018-10-17T06:54:20.944Z,19.7
2018-10-17T06:59:29.099Z,19.9
2018-10-17T07:04:37.107Z,20.3
2018-10-17T07:09:45.278Z,20.8
2018-10-17T07:14:53.238Z,21.3
2018-10-17T07:20:01.301Z,21.9
2018-10-17T07:25:09.249Z,22.3
2018-10-17T07:30:17.188Z,22.6
2018-10-17T07:35:25.122Z,23
2018-10-17T07:40:32.975Z,23.3
2018-10-17T07:45:40.818Z,23.9
2018-10-17T07:55:56.433Z,25.3
2018-10-17T08:01:04.045Z,26.1
2018-10-17T08:06:11.797Z,26.8
2018-10-17T08:11:19.414Z,27.6
2018-10-17T08:16:26.974Z,28.4
2018-10-17T08:21:34.485Z,29.2
2018-10-17T08:26:41.965Z,29.8
2018-10-17T08:31:49.402Z,30.5
2018-10-17T08:36:56.780Z,31.3
2018-10-17T08:47:11.439Z,32.5
2018-10-17T08:52:19.320Z,33.1
2018-10-17T08:57:25.811Z,33.8
2018-10-17T09:02:33.034Z,34.7
2018-10-17T09:07:40.171Z,35.6
2018-10-17T09:12:47.229Z,36.3
2018-10-17T09:17:54.248Z,37
2018-10-17T09:23:01.192Z,37.8
2018-10-17T09:28:08.055Z,38.4
2018-10-17T09:43:28.579Z,40.3
2018-10-17T09:48:35.343Z,40.9
2018-10-17T09:53:42.057Z,41.5
2018-10-17T09:58:48.775Z,42.1
2018-10-17T10:03:55.375Z,42.7
2018-10-17T10:09:02.213Z,43.5
2018-10-17T10:14:08.789Z,44.1
2018-10-17T10:19:15.267Z,44.5
2018-10-17T10:24:21.834Z,44.8
2018-10-17T10:29:28.374Z,44.9
2018-10-17T10:34:34.895Z,45.1
2018-10-17T10:44:47.842Z,45.8
2018-10-17T10:55:00.907Z,46.5
2018-10-17T11:00:07.197Z,46.6
2018-10-17T11:05:13.500Z,46.9
2018-10-17T11:10:19.976Z,47.1
2018-10-17T11:20:32.707Z,47.5
2018-10-17T11:25:39.013Z,47.5
2018-10-17T11:30:45.416Z,47.2
2018-10-17T11:35:51.720Z,47
2018-10-17T11:40:58.053Z,46.8
2018-10-17T11:46:04.445Z,46.7
2018-10-17T11:51:10.927Z,46.4
2018-10-17T11:56:17.350Z,46
2018-10-17T12:01:23.716Z,45.8
2018-10-17T12:11:36.677Z,45.4
2018-10-17T12:16:43.176Z,44.8
2018-10-17T12:21:49.696Z,44.4
2018-10-17T12:26:56.261Z,43.6
2018-10-17T12:37:09.496Z,42.2
2018-10-17T12:47:22.849Z,41.2
2018-10-17T12:52:29.572Z,41
2018-10-17T13:02:43.071Z,40.4
2018-10-17T13:07:49.852Z,40.1
2018-10-17T13:12:56.659Z,40
2018-10-17T13:18:03.486Z,39.6
2018-10-17T13:23:10.353Z,39.5
2018-10-17T13:28:17.200Z,39
2018-10-17T13:33:24.074Z,38.7
2018-10-17T13:38:31.001Z,38.5
2018-10-17T13:43:37.863Z,38.2
2018-10-17T13:48:44.827Z,37.9
2018-10-17T13:53:51.667Z,37.6
2018-10-17T13:58:58.718Z,37.5
2018-10-17T14:04:05.699Z,37.3
2018-10-17T14:09:12.688Z,37.1
2018-10-17T14:19:26.684Z,36.6
2018-10-17T14:24:33.704Z,36.6
2018-10-17T14:29:42.764Z,36.3
2018-10-17T14:34:47.818Z,36.1
2018-10-17T14:45:01.894Z,35.9
2018-10-17T14:50:09.008Z,35.7
2018-10-17T14:55:16.045Z,35.5
2018-10-17T15:00:23.302Z,35.4
2018-10-17T15:05:30.327Z,35.1
2018-10-17T15:10:37.358Z,35
2018-10-17T15:15:44.579Z,34.8
2018-10-17T15:20:51.751Z,34.7
2018-10-17T15:25:59.004Z,34.5
2018-10-17T15:36:13.276Z,34.1
2018-10-17T15:41:20.342Z,33.9
2018-10-17T15:56:42.040Z,33.2
2018-10-17T16:01:49.246Z,33
2018-10-17T16:06:56.523Z,32.9
2018-10-17T16:12:03.668Z,32.6
2018-10-17T16:17:10.949Z,32.2
2018-10-17T16:27:25.410Z,31.8
2018-10-17T16:32:32.747Z,31.6
2018-10-17T16:37:40.123Z,31.4
2018-10-17T16:42:47.400Z,31.1
2018-10-17T16:47:54.855Z,30.8
2018-10-17T16:53:02.235Z,30.6
2018-10-17T16:58:09.654Z,30.4
2018-10-17T17:03:16.983Z,30
2018-10-17T17:08:24.604Z,30
2018-10-17T17:13:31.930Z,29.6
2018-10-17T17:18:39.295Z,29.5
2018-10-17T17:23:46.903Z,29.2
2018-10-17T17:28:54.338Z,29
2018-10-17T17:39:09.347Z,28.6
2018-10-17T17:44:16.902Z,28.4
2018-10-17T17:54:32.039Z,28.1
2018-10-17T17:59:39.628Z,27.9
2018-10-17T18:09:54.638Z,27.4
2018-10-17T18:15:02.393Z,27.3
2018-10-17T18:20:09.903Z,27.1
2018-10-17T18:25:17.571Z,26.9
2018-10-17T18:30:25.075Z,26.7
2018-10-17T18:35:32.725Z,26.4
2018-10-17T18:40:40.454Z,26.3
2018-10-17T18:45:48.139Z,26
2018-10-17T18:50:55.813Z,25.9
2018-10-17T18:56:03.508Z,25.6
2018-10-17T19:01:11.211Z,25.5
2018-10-17T19:06:18.926Z,25.3
2018-10-17T19:11:26.627Z,25
2018-10-17T19:16:34.357Z,24.9
2018-10-17T19:21:42.079Z,24.7
2018-10-17T19:26:49.872Z,24.5
2018-10-17T19:31:57.628Z,24.4
2018-10-17T19:37:05.421Z,24.2
2018-10-17T19:42:13.207Z,24
2018-10-17T19:52:28.834Z,23.7
2018-10-17T19:57:36.547Z,23.5
2018-10-17T20:02:44.361Z,23.4
2018-10-17T20:07:52.188Z,23.2
2018-10-17T20:13:00.176Z,23.1
2018-10-17T20:18:07.948Z,23
2018-10-17T20:23:15.760Z,23
2018-10-17T20:28:23.751Z,22.7
2018-10-17T20:33:31.491Z,22.5
2018-10-17T20:38:39.497Z,22.5
2018-10-17T20:43:47.438Z,22.4
2018-10-17T20:48:55.320Z,22.3
2018-10-17T20:54:03.254Z,22.2
2018-10-17T20:59:11.378Z,22.2
2018-10-17T21:04:19.076Z,22.1
2018-10-17T21:09:27.001Z,22.1
2018-10-17T21:14:35.093Z,21.9
2018-10-17T21:19:42.906Z,21.9
2018-10-17T21:24:50.836Z,21.8
2018-10-17T21:35:06.714Z,21.7
2018-10-17T21:40:14.631Z,21.7
2018-10-17T21:45:22.584Z,21.6
2018-10-17T21:50:30.547Z,21.4
2018-10-17T21:55:38.478Z,21.4
2018-10-17T22:00:46.465Z,21.3
2018-10-17T22:11:02.373Z,21.2
2018-10-17T22:16:10.340Z,21.1
2018-10-17T22:21:18.318Z,21
2018-10-17T22:26:26.205Z,20.9
2018-10-17T22:31:34.248Z,20.9
2018-10-17T22:36:42.232Z,20.8
2018-10-17T22:41:50.238Z,20.7
2018-10-17T22:46:58.264Z,20.6
2018-10-17T22:52:06.323Z,20.5
2018-10-17T22:57:17.091Z,20.5
2018-10-17T23:02:22.472Z,20.2
2018-10-17T23:07:30.400Z,20.3
2018-10-17T23:17:46.600Z,20.1
2018-10-17T23:22:54.677Z,20
2018-10-17T23:28:02.745Z,20
2018-10-17T23:33:10.813Z,19.9
2018-10-17T23:38:18.928Z,19.8
2018-10-17T23:48:34.984Z,19.6
2018-10-17T23:53:43.144Z,19.6
2018-10-17T23:58:51.182Z,19.6
